sensor_id;sensor_type;location;lat;lon;timestamp;P1;durP1;ratioP1;P2;durP2;ratioP2
9972;SDS011;5027;53.560;10.062;2022-11-20T00:00:57;3.60;;;3.00;;
9972;SDS011;5027;53.560;10.062;2022-11-20T00:03:30;3.60;;;2.60;;
9972;SDS011;5027;53.560;10.062;2022-11-20T00:06:03;4.17;;;3.20;;
9972;SDS011;5027;53.560;10.062;2022-11-20T00:08:32;4.50;;;3.53;;
9972;SDS011;5027;53.560;10.062;2022-11-20T00:11:03;3.97;;;3.30;;
9972;SDS011;5027;53.560;10.062;2022-11-20T00:13:45;4.87;;;3.17;;
9972;SDS011;5027;53.560;10.062;2022-11-20T00:16:17;3.50;;;3.20;;
9972;SDS011;5027;53.560;10.062;2022-11-20T00:18:46;7.03;;;3.27;;
9972;SDS011;5027;53.560;10.062;2022-11-20T00:23:41;4.30;;;2.73;;
9972;SDS011;5027;53.560;10.062;2022-11-20T00:26:15;3.37;;;2.93;;
9972;SDS011;5027;53.560;10.062;2022-11-20T00:28:44;5.63;;;3.30;;
9972;SDS011;5027;53.560;10.062;2022-11-20T00:31:25;4.40;;;3.03;;
9972;SDS011;5027;53.560;10.062;2022-11-20T00:33:53;3.63;;;3.20;;
9972;SDS011;5027;53.560;10.062;2022-11-20T00:36:24;3.37;;;2.80;;
9972;SDS011;5027;53.560;10.062;2022-11-20T00:38:54;5.83;;;3.07;;
9972;SDS011;5027;53.560;10.062;2022-11-20T00:41:22;4.70;;;2.80;;
9972;SDS011;5027;53.560;10.062;2022-11-20T00:43:54;3.73;;;2.87;;
9972;SDS011;5027;53.560;10.062;2022-11-20T00:46:25;3.47;;;3.17;;
9972;SDS011;5027;53.560;10.062;2022-11-20T00:48:55;6.00;;;2.90;;
9972;SDS011;5027;53.560;10.062;2022-11-20T00:51:23;4.77;;;2.80;;
9972;SDS011;5027;53.560;10.062;2022-11-20T00:53:52;4.13;;;2.87;;
9972;SDS011;5027;53.560;10.062;2022-11-20T00:56:20;4.27;;;2.87;;
9972;SDS011;5027;53.560;10.062;2022-11-20T00:58:47;4.53;;;3.20;;
9972;SDS011;5027;53.560;10.062;2022-11-20T01:01:16;3.67;;;3.23;;
9972;SDS011;5027;53.560;10.062;2022-11-20T01:03:48;3.77;;;2.80;;
9972;SDS011;5027;53.560;10.062;2022-11-20T01:06:27;3.57;;;2.67;;
9972;SDS011;5027;53.560;10.062;2022-11-20T01:08:55;4.07;;;3.00;;
9972;SDS011;5027;53.560;10.062;2022-11-20T01:11:27;5.07;;;3.00;;
9972;SDS011;5027;53.560;10.062;2022-11-20T01:13:56;4.73;;;2.67;;
9972;SDS011;5027;53.560;10.062;2022-11-20T01:16:29;4.80;;;2.87;;
9972;SDS011;5027;53.560;10.062;2022-11-20T01:19:02;3.03;;;2.50;;
9972;SDS011;5027;53.560;10.062;2022-11-20T01:21:34;3.77;;;2.93;;
9972;SDS011;5027;53.560;10.062;2022-11-20T01:24:06;5.97;;;3.30;;
9972;SDS011;5027;53.560;10.062;2022-11-20T01:26:36;5.73;;;3.10;;
9972;SDS011;5027;53.560;10.062;2022-11-20T01:29:08;4.03;;;2.97;;
9972;SDS011;5027;53.560;10.062;2022-11-20T01:31:49;3.43;;;3.13;;
9972;SDS011;5027;53.560;10.062;2022-11-20T01:34:16;3.63;;;3.33;;
9972;SDS011;5027;53.560;10.062;2022-11-20T01:36:44;4.87;;;2.90;;
9972;SDS011;5027;53.560;10.062;2022-11-20T01:39:13;3.17;;;2.87;;
9972;SDS011;5027;53.560;10.062;2022-11-20T01:41:45;3.60;;;3.00;;
9972;SDS011;5027;53.560;10.062;2022-11-20T01:47:20;3.63;;;2.97;;
9972;SDS011;5027;53.560;10.062;2022-11-20T01:49:52;3.23;;;2.80;;
9972;SDS011;5027;53.560;10.062;2022-11-20T01:52:24;4.63;;;2.90;;
9972;SDS011;5027;53.560;10.062;2022-11-20T01:55:07;6.43;;;3.10;;
9972;SDS011;5027;53.560;10.062;2022-11-20T01:57:40;3.70;;;2.77;;
9972;SDS011;5027;53.560;10.062;2022-11-20T02:00:09;4.10;;;3.50;;
9972;SDS011;5027;53.560;10.062;2022-11-20T02:02:39;5.27;;;3.50;;
9972;SDS011;5027;53.560;10.062;2022-11-20T02:05:14;4.30;;;3.30;;
9972;SDS011;5027;53.560;10.062;2022-11-20T02:07:45;4.73;;;2.90;;
9972;SDS011;5027;53.560;10.062;2022-11-20T02:10:13;3.47;;;2.80;;
9972;SDS011;5027;53.560;10.062;2022-11-20T02:12:41;3.90;;;3.20;;
9972;SDS011;5027;53.560;10.062;2022-11-20T02:15:26;4.27;;;3.27;;
9972;SDS011;5027;53.560;10.062;2022-11-20T02:17:55;4.93;;;3.10;;
9972;SDS011;5027;53.560;10.062;2022-11-20T02:20:22;3.20;;;2.60;;
9972;SDS011;5027;53.560;10.062;2022-11-20T02:25:52;4.67;;;3.00;;
9972;SDS011;5027;53.560;10.062;2022-11-20T02:28:21;3.23;;;2.80;;
9972;SDS011;5027;53.560;10.062;2022-11-20T02:30:48;4.23;;;2.90;;
9972;SDS011;5027;53.560;10.062;2022-11-20T02:33:15;2.97;;;2.67;;
9972;SDS011;5027;53.560;10.062;2022-11-20T02:35:45;3.80;;;2.97;;
9972;SDS011;5027;53.560;10.062;2022-11-20T02:38:12;3.53;;;2.90;;
9972;SDS011;5027;53.560;10.062;2022-11-20T02:40:40;4.40;;;2.93;;
9972;SDS011;5027;53.560;10.062;2022-11-20T02:43:07;3.53;;;2.90;;
9972;SDS011;5027;53.560;10.062;2022-11-20T02:45:34;3.00;;;2.70;;
9972;SDS011;5027;53.560;10.062;2022-11-20T02:48:01;5.17;;;2.87;;
9972;SDS011;5027;53.560;10.062;2022-11-20T02:50:27;3.27;;;2.97;;
9972;SDS011;5027;53.560;10.062;2022-11-20T02:52:54;5.63;;;2.90;;
9972;SDS011;5027;53.560;10.062;2022-11-20T02:55:21;4.13;;;3.13;;
9972;SDS011;5027;53.560;10.062;2022-11-20T02:57:47;4.20;;;3.03;;
9972;SDS011;5027;53.560;10.062;2022-11-20T03:00:14;3.73;;;3.07;;
9972;SDS011;5027;53.560;10.062;2022-11-20T03:02:41;3.33;;;2.80;;
9972;SDS011;5027;53.560;10.062;2022-11-20T03:05:07;3.00;;;2.77;;
9972;SDS011;5027;53.560;10.062;2022-11-20T03:07:34;3.83;;;3.00;;
9972;SDS011;5027;53.560;10.062;2022-11-20T03:10:01;3.23;;;2.80;;
9972;SDS011;5027;53.560;10.062;2022-11-20T03:12:27;4.40;;;2.90;;
9972;SDS011;5027;53.560;10.062;2022-11-20T03:14:54;4.93;;;2.90;;
9972;SDS011;5027;53.560;10.062;2022-11-20T03:17:20;3.90;;;2.43;;
9972;SDS011;5027;53.560;10.062;2022-11-20T03:19:47;3.40;;;3.10;;
9972;SDS011;5027;53.560;10.062;2022-11-20T03:22:14;3.27;;;2.40;;
9972;SDS011;5027;53.560;10.062;2022-11-20T03:24:41;2.60;;;2.40;;
9972;SDS011;5027;53.560;10.062;2022-11-20T03:27:07;3.20;;;2.80;;
9972;SDS011;5027;53.560;10.062;2022-11-20T03:29:37;5.03;;;2.87;;
9972;SDS011;5027;53.560;10.062;2022-11-20T03:32:03;2.93;;;2.57;;
9972;SDS011;5027;53.560;10.062;2022-11-20T03:34:30;3.23;;;2.60;;
9972;SDS011;5027;53.560;10.062;2022-11-20T03:36:57;3.07;;;2.80;;
9972;SDS011;5027;53.560;10.062;2022-11-20T03:39:24;4.43;;;3.07;;
9972;SDS011;5027;53.560;10.062;2022-11-20T03:41:50;4.70;;;2.90;;
9972;SDS011;5027;53.560;10.062;2022-11-20T03:44:17;3.73;;;2.73;;
9972;SDS011;5027;53.560;10.062;2022-11-20T03:46:47;3.20;;;2.63;;
9972;SDS011;5027;53.560;10.062;2022-11-20T03:49:14;4.37;;;2.77;;
9972;SDS011;5027;53.560;10.062;2022-11-20T03:51:40;3.20;;;2.90;;
9972;SDS011;5027;53.560;10.062;2022-11-20T03:54:07;3.87;;;3.00;;
9972;SDS011;5027;53.560;10.062;2022-11-20T03:56:37;4.83;;;2.77;;
9972;SDS011;5027;53.560;10.062;2022-11-20T03:59:04;3.87;;;2.90;;
9972;SDS011;5027;53.560;10.062;2022-11-20T04:01:32;3.00;;;2.70;;
9972;SDS011;5027;53.560;10.062;2022-11-20T04:04:01;3.13;;;2.83;;
9972;SDS011;5027;53.560;10.062;2022-11-20T04:06:35;5.30;;;3.00;;
9972;SDS011;5027;53.560;10.062;2022-11-20T04:09:03;4.53;;;2.70;;
9972;SDS011;5027;53.560;10.062;2022-11-20T04:11:31;4.77;;;3.07;;
9972;SDS011;5027;53.560;10.062;2022-11-20T04:14:00;6.30;;;3.33;;
9972;SDS011;5027;53.560;10.062;2022-11-20T04:16:35;3.77;;;2.90;;
9972;SDS011;5027;53.560;10.062;2022-11-20T04:19:03;4.03;;;2.97;;
9972;SDS011;5027;53.560;10.062;2022-11-20T04:21:32;3.10;;;2.80;;
9972;SDS011;5027;53.560;10.062;2022-11-20T04:23:59;3.57;;;3.13;;
9972;SDS011;5027;53.560;10.062;2022-11-20T04:26:26;3.40;;;3.00;;
9972;SDS011;5027;53.560;10.062;2022-11-20T04:28:54;3.33;;;3.00;;
9972;SDS011;5027;53.560;10.062;2022-11-20T04:31:25;3.97;;;2.90;;
9972;SDS011;5027;53.560;10.062;2022-11-20T04:33:54;3.63;;;2.80;;
9972;SDS011;5027;53.560;10.062;2022-11-20T04:36:22;4.00;;;2.73;;
9972;SDS011;5027;53.560;10.062;2022-11-20T04:38:50;3.57;;;2.80;;
9972;SDS011;5027;53.560;10.062;2022-11-20T04:41:23;3.70;;;3.00;;
9972;SDS011;5027;53.560;10.062;2022-11-20T04:43:52;4.83;;;2.93;;
9972;SDS011;5027;53.560;10.062;2022-11-20T04:46:25;2.90;;;2.60;;
9972;SDS011;5027;53.560;10.062;2022-11-20T04:48:53;3.97;;;3.10;;
9972;SDS011;5027;53.560;10.062;2022-11-20T04:51:20;3.30;;;2.80;;
9972;SDS011;5027;53.560;10.062;2022-11-20T04:53:47;4.67;;;2.63;;
9972;SDS011;5027;53.560;10.062;2022-11-20T04:56:14;4.80;;;2.80;;
9972;SDS011;5027;53.560;10.062;2022-11-20T04:58:41;3.90;;;2.77;;
9972;SDS011;5027;53.560;10.062;2022-11-20T05:01:12;3.27;;;2.83;;
9972;SDS011;5027;53.560;10.062;2022-11-20T05:03:41;4.77;;;2.57;;
9972;SDS011;5027;53.560;10.062;2022-11-20T05:06:09;4.00;;;2.73;;
9972;SDS011;5027;53.560;10.062;2022-11-20T05:08:36;4.67;;;2.80;;
9972;SDS011;5027;53.560;10.062;2022-11-20T05:11:04;2.77;;;2.47;;
9972;SDS011;5027;53.560;10.062;2022-11-20T05:13:39;3.63;;;2.97;;
9972;SDS011;5027;53.560;10.062;2022-11-20T05:16:13;3.47;;;2.70;;
9972;SDS011;5027;53.560;10.062;2022-11-20T05:18:42;2.77;;;2.53;;
9972;SDS011;5027;53.560;10.062;2022-11-20T05:21:10;4.13;;;2.57;;
9972;SDS011;5027;53.560;10.062;2022-11-20T05:23:38;3.43;;;2.67;;
9972;SDS011;5027;53.560;10.062;2022-11-20T05:26:06;3.43;;;2.77;;
9972;SDS011;5027;53.560;10.062;2022-11-20T05:28:34;2.60;;;2.40;;
9972;SDS011;5027;53.560;10.062;2022-11-20T05:31:07;6.90;;;2.90;;
9972;SDS011;5027;53.560;10.062;2022-11-20T05:33:36;3.80;;;2.73;;
9972;SDS011;5027;53.560;10.062;2022-11-20T05:36:05;3.87;;;2.80;;
9972;SDS011;5027;53.560;10.062;2022-11-20T05:38:32;3.27;;;2.63;;
9972;SDS011;5027;53.560;10.062;2022-11-20T05:41:03;3.30;;;2.80;;
9972;SDS011;5027;53.560;10.062;2022-11-20T05:43:40;4.90;;;3.27;;
9972;SDS011;5027;53.560;10.062;2022-11-20T05:46:10;4.20;;;3.10;;
9972;SDS011;5027;53.560;10.062;2022-11-20T05:48:38;3.60;;;2.67;;
9972;SDS011;5027;53.560;10.062;2022-11-20T05:51:06;5.80;;;3.63;;
9972;SDS011;5027;53.560;10.062;2022-11-20T05:53:35;5.80;;;2.90;;
9972;SDS011;5027;53.560;10.062;2022-11-20T05:56:03;3.70;;;2.83;;
9972;SDS011;5027;53.560;10.062;2022-11-20T05:58:32;3.80;;;3.23;;
9972;SDS011;5027;53.560;10.062;2022-11-20T06:01:07;5.20;;;3.00;;
9972;SDS011;5027;53.560;10.062;2022-11-20T06:03:34;3.17;;;2.73;;
9972;SDS011;5027;53.560;10.062;2022-11-20T06:06:01;3.20;;;2.90;;
9972;SDS011;5027;53.560;10.062;2022-11-20T06:08:28;3.10;;;2.80;;
9972;SDS011;5027;53.560;10.062;2022-11-20T06:10:55;3.23;;;2.70;;
9972;SDS011;5027;53.560;10.062;2022-11-20T06:13:22;3.40;;;2.87;;
9972;SDS011;5027;53.560;10.062;2022-11-20T06:15:49;4.93;;;3.17;;
9972;SDS011;5027;53.560;10.062;2022-11-20T06:18:17;3.53;;;2.90;;
9972;SDS011;5027;53.560;10.062;2022-11-20T06:20:44;3.93;;;3.30;;
9972;SDS011;5027;53.560;10.062;2022-11-20T06:23:11;4.37;;;3.40;;
9972;SDS011;5027;53.560;10.062;2022-11-20T06:25:39;5.80;;;3.63;;
9972;SDS011;5027;53.560;10.062;2022-11-20T06:28:07;3.83;;;3.50;;
9972;SDS011;5027;53.560;10.062;2022-11-20T06:30:35;4.50;;;4.10;;
9972;SDS011;5027;53.560;10.062;2022-11-20T06:33:02;5.90;;;4.90;;
9972;SDS011;5027;53.560;10.062;2022-11-20T06:35:28;5.23;;;4.77;;
9972;SDS011;5027;53.560;10.062;2022-11-20T06:37:55;7.10;;;5.43;;
9972;SDS011;5027;53.560;10.062;2022-11-20T06:40:22;6.40;;;5.63;;
9972;SDS011;5027;53.560;10.062;2022-11-20T06:42:49;6.90;;;5.30;;
9972;SDS011;5027;53.560;10.062;2022-11-20T06:45:15;7.40;;;5.60;;
9972;SDS011;5027;53.560;10.062;2022-11-20T06:47:42;6.27;;;5.67;;
9972;SDS011;5027;53.560;10.062;2022-11-20T06:50:09;5.73;;;5.23;;
9972;SDS011;5027;53.560;10.062;2022-11-20T06:52:35;5.60;;;5.10;;
9972;SDS011;5027;53.560;10.062;2022-11-20T06:55:08;5.30;;;4.80;;
9972;SDS011;5027;53.560;10.062;2022-11-20T06:57:35;7.20;;;5.37;;
9972;SDS011;5027;53.560;10.062;2022-11-20T07:00:01;6.30;;;5.13;;
9972;SDS011;5027;53.560;10.062;2022-11-20T07:02:28;5.20;;;4.70;;
9972;SDS011;5027;53.560;10.062;2022-11-20T07:04:55;7.70;;;4.80;;
9972;SDS011;5027;53.560;10.062;2022-11-20T07:07:21;5.37;;;3.90;;
9972;SDS011;5027;53.560;10.062;2022-11-20T07:09:48;4.30;;;3.90;;
9972;SDS011;5027;53.560;10.062;2022-11-20T07:12:15;6.17;;;4.30;;
9972;SDS011;5027;53.560;10.062;2022-11-20T07:14:42;5.73;;;4.47;;
9972;SDS011;5027;53.560;10.062;2022-11-20T07:17:08;4.43;;;3.80;;
9972;SDS011;5027;53.560;10.062;2022-11-20T07:19:35;4.93;;;3.77;;
9972;SDS011;5027;53.560;10.062;2022-11-20T07:22:01;5.10;;;3.73;;
9972;SDS011;5027;53.560;10.062;2022-11-20T07:24:28;4.30;;;3.20;;
9972;SDS011;5027;53.560;10.062;2022-11-20T07:26:55;5.20;;;3.30;;
9972;SDS011;5027;53.560;10.062;2022-11-20T07:29:21;3.50;;;3.20;;
9972;SDS011;5027;53.560;10.062;2022-11-20T07:31:48;4.87;;;2.87;;
9972;SDS011;5027;53.560;10.062;2022-11-20T07:34:15;4.23;;;2.83;;
9972;SDS011;5027;53.560;10.062;2022-11-20T07:36:42;3.50;;;3.07;;
9972;SDS011;5027;53.560;10.062;2022-11-20T07:39:08;3.07;;;2.87;;
9972;SDS011;5027;53.560;10.062;2022-11-20T07:41:35;3.97;;;3.37;;
9972;SDS011;5027;53.560;10.062;2022-11-20T07:44:01;5.83;;;3.10;;
9972;SDS011;5027;53.560;10.062;2022-11-20T07:46:28;4.50;;;3.23;;
9972;SDS011;5027;53.560;10.062;2022-11-20T07:48:55;4.20;;;3.27;;
9972;SDS011;5027;53.560;10.062;2022-11-20T07:51:21;3.43;;;2.93;;
9972;SDS011;5027;53.560;10.062;2022-11-20T07:53:50;4.83;;;3.13;;
9972;SDS011;5027;53.560;10.062;2022-11-20T07:56:18;4.10;;;3.47;;
9972;SDS011;5027;53.560;10.062;2022-11-20T07:58:44;3.33;;;3.03;;
9972;SDS011;5027;53.560;10.062;2022-11-20T08:01:11;4.00;;;2.90;;
9972;SDS011;5027;53.560;10.062;2022-11-20T08:03:38;3.40;;;3.10;;
9972;SDS011;5027;53.560;10.062;2022-11-20T08:06:04;5.53;;;3.50;;
9972;SDS011;5027;53.560;10.062;2022-11-20T08:08:31;3.70;;;3.40;;
9972;SDS011;5027;53.560;10.062;2022-11-20T08:11:00;3.97;;;3.40;;
9972;SDS011;5027;53.560;10.062;2022-11-20T08:13:52;4.23;;;3.83;;
9972;SDS011;5027;53.560;10.062;2022-11-20T08:16:47;4.20;;;3.80;;
9972;SDS011;5027;53.560;10.062;2022-11-20T08:19:17;4.70;;;3.70;;
9972;SDS011;5027;53.560;10.062;2022-11-20T08:21:45;5.77;;;4.67;;
9972;SDS011;5027;53.560;10.062;2022-11-20T08:24:12;4.43;;;4.03;;
9972;SDS011;5027;53.560;10.062;2022-11-20T08:26:39;5.57;;;3.63;;
9972;SDS011;5027;53.560;10.062;2022-11-20T08:29:06;3.70;;;3.40;;
9972;SDS011;5027;53.560;10.062;2022-11-20T08:31:33;4.10;;;3.70;;
9972;SDS011;5027;53.560;10.062;2022-11-20T08:34:00;3.07;;;2.77;;
9972;SDS011;5027;53.560;10.062;2022-11-20T08:36:33;3.27;;;2.60;;
9972;SDS011;5027;53.560;10.062;2022-11-20T08:39:01;3.00;;;2.70;;
9972;SDS011;5027;53.560;10.062;2022-11-20T08:41:28;3.33;;;2.80;;
9972;SDS011;5027;53.560;10.062;2022-11-20T08:43:59;2.40;;;2.20;;
9972;SDS011;5027;53.560;10.062;2022-11-20T08:46:31;2.50;;;2.30;;
9972;SDS011;5027;53.560;10.062;2022-11-20T08:48:59;3.10;;;2.00;;
9972;SDS011;5027;53.560;10.062;2022-11-20T08:51:26;2.30;;;2.10;;
9972;SDS011;5027;53.560;10.062;2022-11-20T08:53:53;2.60;;;2.40;;
9972;SDS011;5027;53.560;10.062;2022-11-20T08:56:19;1.90;;;1.80;;
9972;SDS011;5027;53.560;10.062;2022-11-20T08:58:46;2.10;;;1.90;;
9972;SDS011;5027;53.560;10.062;2022-11-20T09:01:33;2.37;;;2.17;;
9972;SDS011;5027;53.560;10.062;2022-11-20T09:03:59;2.97;;;2.47;;
9972;SDS011;5027;53.560;10.062;2022-11-20T09:06:26;2.47;;;2.27;;
9972;SDS011;5027;53.560;10.062;2022-11-20T09:08:53;2.27;;;2.00;;
9972;SDS011;5027;53.560;10.062;2022-11-20T09:11:20;2.60;;;2.40;;
9972;SDS011;5027;53.560;10.062;2022-11-20T09:13:48;4.17;;;3.40;;
9972;SDS011;5027;53.560;10.062;2022-11-20T09:16:15;3.63;;;3.10;;
9972;SDS011;5027;53.560;10.062;2022-11-20T09:18:41;2.20;;;2.00;;
9972;SDS011;5027;53.560;10.062;2022-11-20T09:21:09;2.70;;;2.17;;
9972;SDS011;5027;53.560;10.062;2022-11-20T09:23:37;2.37;;;2.17;;
9972;SDS011;5027;53.560;10.062;2022-11-20T09:26:05;2.40;;;2.20;;
9972;SDS011;5027;53.560;10.062;2022-11-20T09:28:36;2.47;;;2.27;;
9972;SDS011;5027;53.560;10.062;2022-11-20T09:31:07;2.83;;;2.53;;
9972;SDS011;5027;53.560;10.062;2022-11-20T09:33:35;2.60;;;2.37;;
9972;SDS011;5027;53.560;10.062;2022-11-20T09:36:06;2.60;;;2.40;;
9972;SDS011;5027;53.560;10.062;2022-11-20T09:38:33;3.20;;;2.90;;
9972;SDS011;5027;53.560;10.062;2022-11-20T09:41:03;3.00;;;2.40;;
9972;SDS011;5027;53.560;10.062;2022-11-20T09:43:50;2.90;;;2.60;;
9972;SDS011;5027;53.560;10.062;2022-11-20T09:50:20;2.77;;;2.50;;
9972;SDS011;5027;53.560;10.062;2022-11-20T09:53:00;3.67;;;3.07;;
9972;SDS011;5027;53.560;10.062;2022-11-20T09:55:38;3.13;;;2.83;;
9972;SDS011;5027;53.560;10.062;2022-11-20T09:58:06;2.73;;;2.53;;
9972;SDS011;5027;53.560;10.062;2022-11-20T10:00:40;10.27;;;8.30;;
9972;SDS011;5027;53.560;10.062;2022-11-20T10:03:14;3.30;;;3.00;;
9972;SDS011;5027;53.560;10.062;2022-11-20T10:05:50;2.90;;;2.70;;
9972;SDS011;5027;53.560;10.062;2022-11-20T10:08:31;2.57;;;2.37;;
9972;SDS011;5027;53.560;10.062;2022-11-20T10:11:21;2.97;;;2.27;;
9972;SDS011;5027;53.560;10.062;2022-11-20T10:16:53;2.80;;;2.60;;
9972;SDS011;5027;53.560;10.062;2022-11-20T10:19:44;3.27;;;2.60;;
9972;SDS011;5027;53.560;10.062;2022-11-20T10:25:13;3.17;;;2.53;;
9972;SDS011;5027;53.560;10.062;2022-11-20T10:30:37;2.70;;;2.50;;
9972;SDS011;5027;53.560;10.062;2022-11-20T10:33:19;2.80;;;2.60;;
9972;SDS011;5027;53.560;10.062;2022-11-20T10:35:51;4.13;;;2.90;;
9972;SDS011;5027;53.560;10.062;2022-11-20T10:38:47;3.67;;;2.93;;
9972;SDS011;5027;53.560;10.062;2022-11-20T10:41:25;2.40;;;2.20;;
9972;SDS011;5027;53.560;10.062;2022-11-20T10:44:03;2.50;;;2.30;;
9972;SDS011;5027;53.560;10.062;2022-11-20T10:46:39;2.60;;;2.40;;
9972;SDS011;5027;53.560;10.062;2022-11-20T10:49:14;4.90;;;2.50;;
9972;SDS011;5027;53.560;10.062;2022-11-20T10:51:46;2.50;;;2.30;;
9972;SDS011;5027;53.560;10.062;2022-11-20T10:54:29;2.67;;;2.40;;
9972;SDS011;5027;53.560;10.062;2022-11-20T11:00:22;2.67;;;2.47;;
9972;SDS011;5027;53.560;10.062;2022-11-20T11:05:18;2.77;;;2.57;;
9972;SDS011;5027;53.560;10.062;2022-11-20T11:08:17;3.03;;;2.77;;
9972;SDS011;5027;53.560;10.062;2022-11-20T11:10:51;2.43;;;2.23;;
9972;SDS011;5027;53.560;10.062;2022-11-20T11:13:24;3.37;;;2.50;;
9972;SDS011;5027;53.560;10.062;2022-11-20T11:15:53;2.60;;;2.40;;
9972;SDS011;5027;53.560;10.062;2022-11-20T11:18:27;2.90;;;2.60;;
9972;SDS011;5027;53.560;10.062;2022-11-20T11:20:59;3.13;;;2.40;;
9972;SDS011;5027;53.560;10.062;2022-11-20T11:26:50;3.13;;;1.90;;
9972;SDS011;5027;53.560;10.062;2022-11-20T11:29:25;2.80;;;2.27;;
9972;SDS011;5027;53.560;10.062;2022-11-20T11:32:12;3.70;;;2.70;;
9972;SDS011;5027;53.560;10.062;2022-11-20T11:34:40;2.67;;;2.47;;
9972;SDS011;5027;53.560;10.062;2022-11-20T11:37:13;2.83;;;2.63;;
9972;SDS011;5027;53.560;10.062;2022-11-20T11:39:43;2.23;;;1.90;;
9972;SDS011;5027;53.560;10.062;2022-11-20T11:42:20;2.40;;;2.20;;
9972;SDS011;5027;53.560;10.062;2022-11-20T11:44:47;2.30;;;2.10;;
9972;SDS011;5027;53.560;10.062;2022-11-20T11:47:36;1.97;;;1.87;;
9972;SDS011;5027;53.560;10.062;2022-11-20T11:55:37;2.07;;;1.87;;
9972;SDS011;5027;53.560;10.062;2022-11-20T12:00:55;2.20;;;2.00;;
9972;SDS011;5027;53.560;10.062;2022-11-20T12:06:42;2.33;;;2.17;;
9972;SDS011;5027;53.560;10.062;2022-11-20T12:09:11;2.03;;;1.67;;
9972;SDS011;5027;53.560;10.062;2022-11-20T12:11:49;1.67;;;1.57;;
9972;SDS011;5027;53.560;10.062;2022-11-20T12:14:30;2.47;;;1.90;;
9972;SDS011;5027;53.560;10.062;2022-11-20T12:17:01;2.97;;;2.33;;
9972;SDS011;5027;53.560;10.062;2022-11-20T12:19:30;1.60;;;1.50;;
9972;SDS011;5027;53.560;10.062;2022-11-20T12:22:02;2.10;;;1.80;;
9972;SDS011;5027;53.560;10.062;2022-11-20T12:24:55;1.97;;;1.77;;
9972;SDS011;5027;53.560;10.062;2022-11-20T12:27:44;2.17;;;1.93;;
9972;SDS011;5027;53.560;10.062;2022-11-20T12:30:33;1.83;;;1.73;;
9972;SDS011;5027;53.560;10.062;2022-11-20T12:38:36;2.00;;;1.77;;
9972;SDS011;5027;53.560;10.062;2022-11-20T12:43:43;2.60;;;2.33;;
9972;SDS011;5027;53.560;10.062;2022-11-20T12:46:46;2.10;;;1.90;;
9972;SDS011;5027;53.560;10.062;2022-11-20T12:49:38;2.30;;;1.80;;
9972;SDS011;5027;53.560;10.062;2022-11-20T12:58:08;3.70;;;2.40;;
9972;SDS011;5027;53.560;10.062;2022-11-20T13:00:42;2.33;;;2.13;;
9972;SDS011;5027;53.560;10.062;2022-11-20T13:03:30;1.97;;;1.80;;
9972;SDS011;5027;53.560;10.062;2022-11-20T13:06:18;2.17;;;1.97;;
9972;SDS011;5027;53.560;10.062;2022-11-20T13:08:48;1.80;;;1.70;;
9972;SDS011;5027;53.560;10.062;2022-11-20T13:14:26;1.90;;;1.80;;
9972;SDS011;5027;53.560;10.062;2022-11-20T13:17:11;2.33;;;2.00;;
9972;SDS011;5027;53.560;10.062;2022-11-20T13:19:55;1.60;;;1.50;;
9972;SDS011;5027;53.560;10.062;2022-11-20T13:22:28;2.00;;;1.80;;
9972;SDS011;5027;53.560;10.062;2022-11-20T13:30:35;1.87;;;1.77;;
9972;SDS011;5027;53.560;10.062;2022-11-20T13:33:36;2.30;;;1.97;;
9972;SDS011;5027;53.560;10.062;2022-11-20T13:36:20;3.43;;;2.13;;
9972;SDS011;5027;53.560;10.062;2022-11-20T13:38:49;3.40;;;2.37;;
9972;SDS011;5027;53.560;10.062;2022-11-20T13:41:34;1.90;;;1.80;;
9972;SDS011;5027;53.560;10.062;2022-11-20T13:46:43;2.40;;;2.07;;
9972;SDS011;5027;53.560;10.062;2022-11-20T13:49:19;2.63;;;2.10;;
9972;SDS011;5027;53.560;10.062;2022-11-20T13:52:37;2.20;;;2.00;;
9972;SDS011;5027;53.560;10.062;2022-11-20T13:57:55;2.10;;;1.90;;
9972;SDS011;5027;53.560;10.062;2022-11-20T14:00:47;2.50;;;2.30;;
9972;SDS011;5027;53.560;10.062;2022-11-20T14:03:21;2.70;;;2.50;;
9972;SDS011;5027;53.560;10.062;2022-11-20T14:06:20;2.83;;;2.10;;
9972;SDS011;5027;53.560;10.062;2022-11-20T14:08:53;2.07;;;1.87;;
9972;SDS011;5027;53.560;10.062;2022-11-20T14:11:22;2.53;;;2.00;;
9972;SDS011;5027;53.560;10.062;2022-11-20T14:13:57;1.83;;;1.73;;
9972;SDS011;5027;53.560;10.062;2022-11-20T14:16:27;2.67;;;2.13;;
9972;SDS011;5027;53.560;10.062;2022-11-20T14:18:55;2.37;;;2.17;;
9972;SDS011;5027;53.560;10.062;2022-11-20T14:21:28;4.13;;;2.33;;
9972;SDS011;5027;53.560;10.062;2022-11-20T14:24:05;2.30;;;2.10;;
9972;SDS011;5027;53.560;10.062;2022-11-20T14:26:33;2.23;;;2.03;;
9972;SDS011;5027;53.560;10.062;2022-11-20T14:29:00;2.07;;;1.80;;
9972;SDS011;5027;53.560;10.062;2022-11-20T14:31:27;2.03;;;1.87;;
9972;SDS011;5027;53.560;10.062;2022-11-20T14:33:54;3.50;;;2.20;;
9972;SDS011;5027;53.560;10.062;2022-11-20T14:36:22;2.40;;;2.20;;
9972;SDS011;5027;53.560;10.062;2022-11-20T14:38:53;2.23;;;2.03;;
9972;SDS011;5027;53.560;10.062;2022-11-20T14:41:21;2.13;;;1.93;;
9972;SDS011;5027;53.560;10.062;2022-11-20T14:43:51;2.40;;;2.20;;
9972;SDS011;5027;53.560;10.062;2022-11-20T14:46:22;2.67;;;2.47;;
9972;SDS011;5027;53.560;10.062;2022-11-20T14:48:50;2.60;;;2.40;;
9972;SDS011;5027;53.560;10.062;2022-11-20T14:51:29;2.70;;;2.40;;
9972;SDS011;5027;53.560;10.062;2022-11-20T14:56:40;4.27;;;2.60;;
9972;SDS011;5027;53.560;10.062;2022-11-20T14:59:08;2.57;;;2.37;;
9972;SDS011;5027;53.560;10.062;2022-11-20T15:01:35;2.50;;;2.30;;
9972;SDS011;5027;53.560;10.062;2022-11-20T15:06:51;2.97;;;2.10;;
9972;SDS011;5027;53.560;10.062;2022-11-20T15:09:19;3.77;;;2.57;;
9972;SDS011;5027;53.560;10.062;2022-11-20T15:11:53;2.63;;;2.30;;
9972;SDS011;5027;53.560;10.062;2022-11-20T15:14:26;4.53;;;2.40;;
9972;SDS011;5027;53.560;10.062;2022-11-20T15:16:54;2.30;;;2.10;;
9972;SDS011;5027;53.560;10.062;2022-11-20T15:19:24;14.20;;;9.97;;
9972;SDS011;5027;53.560;10.062;2022-11-20T15:21:55;7.23;;;4.50;;
9972;SDS011;5027;53.560;10.062;2022-11-20T15:24:22;4.87;;;3.73;;
9972;SDS011;5027;53.560;10.062;2022-11-20T15:26:49;4.40;;;2.30;;
9972;SDS011;5027;53.560;10.062;2022-11-20T15:29:16;2.47;;;2.20;;
9972;SDS011;5027;53.560;10.062;2022-11-20T15:31:45;3.30;;;2.73;;
9972;SDS011;5027;53.560;10.062;2022-11-20T15:34:12;2.73;;;2.10;;
9972;SDS011;5027;53.560;10.062;2022-11-20T15:36:42;3.30;;;2.93;;
9972;SDS011;5027;53.560;10.062;2022-11-20T15:39:09;3.50;;;2.80;;
9972;SDS011;5027;53.560;10.062;2022-11-20T15:41:37;3.10;;;2.50;;
9972;SDS011;5027;53.560;10.062;2022-11-20T15:44:05;3.03;;;2.37;;
9972;SDS011;5027;53.560;10.062;2022-11-20T15:46:35;2.70;;;2.47;;
9972;SDS011;5027;53.560;10.062;2022-11-20T15:49:06;2.70;;;2.07;;
9972;SDS011;5027;53.560;10.062;2022-11-20T15:51:40;1.93;;;1.80;;
9972;SDS011;5027;53.560;10.062;2022-11-20T15:54:16;2.87;;;1.60;;
9972;SDS011;5027;53.560;10.062;2022-11-20T15:56:47;2.67;;;2.07;;
9972;SDS011;5027;53.560;10.062;2022-11-20T15:59:15;5.67;;;2.40;;
9972;SDS011;5027;53.560;10.062;2022-11-20T16:01:41;3.03;;;2.20;;
9972;SDS011;5027;53.560;10.062;2022-11-20T16:04:12;6.00;;;2.90;;
9972;SDS011;5027;53.560;10.062;2022-11-20T16:06:40;3.77;;;2.43;;
9972;SDS011;5027;53.560;10.062;2022-11-20T16:09:07;2.67;;;2.43;;
9972;SDS011;5027;53.560;10.062;2022-11-20T16:11:34;3.10;;;2.47;;
9972;SDS011;5027;53.560;10.062;2022-11-20T16:14:04;3.27;;;2.97;;
9972;SDS011;5027;53.560;10.062;2022-11-20T16:16:51;3.20;;;2.90;;
9972;SDS011;5027;53.560;10.062;2022-11-20T16:19:18;4.23;;;3.17;;
9972;SDS011;5027;53.560;10.062;2022-11-20T16:21:45;4.00;;;3.50;;
9972;SDS011;5027;53.560;10.062;2022-11-20T16:24:12;4.30;;;3.00;;
9972;SDS011;5027;53.560;10.062;2022-11-20T16:26:40;5.10;;;3.60;;
9972;SDS011;5027;53.560;10.062;2022-11-20T16:29:07;4.90;;;3.10;;
9972;SDS011;5027;53.560;10.062;2022-11-20T16:31:34;3.83;;;3.20;;
9972;SDS011;5027;53.560;10.062;2022-11-20T16:34:02;5.60;;;4.10;;
9972;SDS011;5027;53.560;10.062;2022-11-20T16:36:40;10.27;;;6.03;;
9972;SDS011;5027;53.560;10.062;2022-11-20T16:39:09;12.10;;;6.87;;